Time;durP1;ratioP1;P1;durP2;ratioP2;P2;SDS_P1;SDS_P2;PMS_P1;PMS_P2;Temp;Humidity;BMP_temperature;BMP_pressure;BME280_temperature;BME280_humidity;BME280_pressure;Samples;Min_cycle;Max_cycle;Signal;HPM_P1;HPM_P2
2021/07/18 00:00:43;;;;;;;14.17;9.40;;;;;;;;;;5098229;28;20208;-74
2021/07/18 00:03:12;;;;;;;13.97;9.73;;;;;;;;;;5098269;28;20707;-73
2021/07/18 00:05:40;;;;;;;14.77;9.73;;;;;;;;;;5097780;28;20276;-73
2021/07/18 00:08:08;;;;;;;14.13;9.50;;;;;;;;;;5098442;28;20206;-73
2021/07/18 00:10:36;;;;;;;17.27;9.93;;;;;;;;;;5097944;28;20225;-73
2021/07/18 00:13:04;;;;;;;16.17;10.00;;;;;;;;;;5097682;28;20237;-73
2021/07/18 00:15:32;;;;;;;10.73;9.37;;;;;;;;;;5097756;28;20677;-74
2021/07/18 00:18:00;;;;;;;17.23;9.40;;;;;;;;;;5097545;28;20209;-73
2021/07/18 00:20:29;;;;;;;13.60;9.87;;;;;;;;;;5098008;28;20201;-74
2021/07/18 00:22:57;;;;;;;12.53;10.13;;;;;;;;;;5097747;28;20239;-73
2021/07/18 00:25:25;;;;;;;11.60;8.97;;;;;;;;;;5097378;28;20752;-73
2021/07/18 00:27:53;;;;;;;12.40;9.80;;;;;;;;;;5097552;28;20205;-74
2021/07/18 00:30:21;;;;;;;11.60;9.17;;;;;;;;;;5097963;28;20225;-74
2021/07/18 00:32:49;;;;;;;16.23;9.53;;;;;;;;;;5097793;28;20229;-74
2021/07/18 00:35:17;;;;;;;12.63;9.57;;;;;;;;;;5097712;28;20292;-74
2021/07/18 00:37:46;;;;;;;13.93;9.27;;;;;;;;;;5097729;28;20233;-74
2021/07/18 00:40:15;;;;;;;11.13;8.80;;;;;;;;;;5097535;28;20677;-74
2021/07/18 00:42:43;;;;;;;10.43;8.90;;;;;;;;;;5097259;28;20276;-74
2021/07/18 00:45:12;;;;;;;11.80;9.67;;;;;;;;;;5097668;28;20209;-74
2021/07/18 00:47:41;;;;;;;15.17;9.47;;;;;;;;;;5097542;28;20259;-74
2021/07/18 00:50:10;;;;;;;13.97;9.33;;;;;;;;;;5097782;28;20213;-73
2021/07/18 00:52:38;;;;;;;13.10;10.07;;;;;;;;;;5097640;28;20221;-74
2021/07/18 00:55:08;;;;;;;13.13;8.63;;;;;;;;;;5097145;28;20214;-74
2021/07/18 00:57:37;;;;;;;11.57;9.13;;;;;;;;;;5097389;28;20205;-74
2021/07/18 01:00:06;;;;;;;12.80;9.47;;;;;;;;;;5097763;28;20209;-74
2021/07/18 01:02:34;;;;;;;12.23;9.87;;;;;;;;;;5100551;28;20700;-74
2021/07/18 01:05:02;;;;;;;13.70;9.57;;;;;;;;;;5101200;28;20292;-74
2021/07/18 01:07:30;;;;;;;13.47;8.87;;;;;;;;;;5088116;28;20237;-74
2021/07/18 01:09:58;;;;;;;12.23;9.00;;;;;;;;;;5101573;28;20756;-74
2021/07/18 01:12:28;;;;;;;12.67;9.23;;;;;;;;;;5100681;28;20244;-74
2021/07/18 01:14:56;;;;;;;11.77;9.13;;;;;;;;;;5101322;28;20205;-74
2021/07/18 01:17:24;;;;;;;11.13;8.77;;;;;;;;;;5101448;28;20209;-74
2021/07/18 01:19:52;;;;;;;12.47;8.43;;;;;;;;;;5101196;28;20205;-74
2021/07/18 01:22:21;;;;;;;11.07;8.53;;;;;;;;;;5100976;28;20221;-73
2021/07/18 01:24:49;;;;;;;12.47;9.13;;;;;;;;;;5100795;28;20216;-73
2021/07/18 01:27:18;;;;;;;11.43;8.73;;;;;;;;;;5100871;28;20209;-73
2021/07/18 01:29:46;;;;;;;14.13;9.20;;;;;;;;;;5100774;28;20209;-73
2021/07/18 01:32:14;;;;;;;12.00;9.30;;;;;;;;;;5100653;28;20237;-73
2021/07/18 01:34:41;;;;;;;12.37;9.50;;;;;;;;;;5101020;28;20215;-73
2021/07/18 01:37:09;;;;;;;13.90;9.23;;;;;;;;;;5100889;28;20212;-73
2021/07/18 01:39:39;;;;;;;12.40;9.43;;;;;;;;;;5100561;28;20201;-73
2021/07/18 01:42:07;;;;;;;12.90;9.00;;;;;;;;;;5100253;28;20221;-73
2021/07/18 01:44:35;;;;;;;18.03;10.63;;;;;;;;;;5100747;28;20205;-73
2021/07/18 01:47:03;;;;;;;15.27;9.60;;;;;;;;;;5100789;28;20289;-73
2021/07/18 01:49:31;;;;;;;14.37;9.73;;;;;;;;;;5100684;28;20212;-73
2021/07/18 01:51:59;;;;;;;17.30;10.70;;;;;;;;;;5100539;28;20229;-73
2021/07/18 01:54:27;;;;;;;13.03;10.10;;;;;;;;;;5100472;28;20206;-73
2021/07/18 01:56:57;;;;;;;12.17;9.30;;;;;;;;;;5100185;28;20205;-74
2021/07/18 01:59:25;;;;;;;13.33;9.63;;;;;;;;;;5100361;28;20653;-73
2021/07/18 02:01:53;;;;;;;12.80;9.67;;;;;;;;;;5100348;28;20688;-73
2021/07/18 02:04:21;;;;;;;15.43;9.87;;;;;;;;;;5103049;28;20205;-73
2021/07/18 02:06:49;;;;;;;18.60;12.17;;;;;;;;;;5105416;28;20206;-73
2021/07/18 02:09:18;;;;;;;14.87;10.90;;;;;;;;;;5110155;28;20244;-72
2021/07/18 02:11:46;;;;;;;13.47;10.00;;;;;;;;;;5099367;28;20249;-72
2021/07/18 02:14:16;;;;;;;15.27;10.03;;;;;;;;;;5098846;28;20664;-73
2021/07/18 02:16:43;;;;;;;17.17;11.00;;;;;;;;;;5113005;28;20222;-70
2021/07/18 02:19:11;;;;;;;16.53;10.17;;;;;;;;;;5109356;28;20270;-65
2021/07/18 02:21:40;;;;;;;13.70;10.13;;;;;;;;;;5110437;28;20213;-66
2021/07/18 02:24:08;;;;;;;15.33;10.00;;;;;;;;;;5109511;28;20204;-66
2021/07/18 02:26:37;;;;;;;12.93;10.27;;;;;;;;;;5114221;28;20197;-65
2021/07/18 02:29:05;;;;;;;14.73;9.47;;;;;;;;;;5099977;28;20201;-66
2021/07/18 02:31:35;;;;;;;12.90;9.70;;;;;;;;;;5099707;28;20240;-66
2021/07/18 02:34:03;;;;;;;13.03;10.10;;;;;;;;;;5099505;28;20217;-65
2021/07/18 02:36:32;;;;;;;15.27;10.03;;;;;;;;;;5118335;28;20207;-66
2021/07/18 02:39:00;;;;;;;16.57;10.13;;;;;;;;;;5112292;28;20239;-65
2021/07/18 02:41:29;;;;;;;12.57;9.27;;;;;;;;;;5099168;28;20224;-66
2021/07/18 02:43:57;;;;;;;14.00;9.97;;;;;;;;;;5099419;28;20288;-66
2021/07/18 02:46:25;;;;;;;14.40;10.40;;;;;;;;;;5099572;28;20284;-66
2021/07/18 02:48:55;;;;;;;15.70;10.43;;;;;;;;;;5099626;28;20206;-66
2021/07/18 02:51:23;;;;;;;13.47;9.67;;;;;;;;;;5099144;28;20234;-66
2021/07/18 02:53:51;;;;;;;12.77;10.70;;;;;;;;;;5099169;28;20232;-66
2021/07/18 02:56:19;;;;;;;11.70;10.07;;;;;;;;;;5098348;28;20197;-66
2021/07/18 02:58:47;;;;;;;17.83;11.03;;;;;;;;;;5103924;28;20265;-66
2021/07/18 03:01:15;;;;;;;15.63;10.97;;;;;;;;;;5098985;28;20223;-66
2021/07/18 03:03:43;;;;;;;16.07;9.90;;;;;;;;;;5108999;28;20333;-66
2021/07/18 03:06:13;;;;;;;12.90;9.90;;;;;;;;;;5109948;28;20586;-66
2021/07/18 03:08:41;;;;;;;13.47;10.00;;;;;;;;;;5089864;28;20206;-66
2021/07/18 03:11:09;;;;;;;14.73;10.10;;;;;;;;;;5096181;28;20216;-66
2021/07/18 03:13:36;;;;;;;13.10;10.50;;;;;;;;;;5099401;28;20208;-66
2021/07/18 03:16:05;;;;;;;20.47;11.40;;;;;;;;;;5104603;28;20227;-66
2021/07/18 03:18:33;;;;;;;14.70;10.93;;;;;;;;;;5119392;28;20209;-66
2021/07/18 03:21:01;;;;;;;14.37;10.60;;;;;;;;;;5118923;28;20221;-66
2021/07/18 03:23:30;;;;;;;15.63;10.37;;;;;;;;;;5119014;28;20201;-66
2021/07/18 03:25:58;;;;;;;17.37;11.20;;;;;;;;;;5100149;28;20237;-66
2021/07/18 03:28:26;;;;;;;14.33;10.77;;;;;;;;;;5098736;28;20202;-65
2021/07/18 03:30:56;;;;;;;17.43;11.03;;;;;;;;;;5099607;28;20205;-66
2021/07/18 03:33:24;;;;;;;15.73;11.17;;;;;;;;;;5099224;28;20230;-66
2021/07/18 03:35:53;;;;;;;16.13;12.03;;;;;;;;;;5098570;28;20210;-65
2021/07/18 03:38:21;;;;;;;16.23;11.47;;;;;;;;;;5098366;28;20283;-66
2021/07/18 03:40:50;;;;;;;13.33;10.83;;;;;;;;;;5098290;28;20212;-66
2021/07/18 03:43:18;;;;;;;15.70;10.73;;;;;;;;;;5096998;28;20226;-64
2021/07/18 03:45:46;;;;;;;15.80;10.80;;;;;;;;;;5098122;28;20569;-65
2021/07/18 03:48:14;;;;;;;17.37;11.63;;;;;;;;;;5098168;28;20592;-64
2021/07/18 03:50:42;;;;;;;14.03;10.70;;;;;;;;;;5098454;28;20265;-65
2021/07/18 03:53:10;;;;;;;17.70;11.53;;;;;;;;;;5098221;28;20237;-65
2021/07/18 03:55:38;;;;;;;14.97;11.27;;;;;;;;;;5098029;28;20642;-65
2021/07/18 03:58:07;;;;;;;15.83;11.43;;;;;;;;;;5097734;28;20576;-64
2021/07/18 04:00:35;;;;;;;17.43;10.97;;;;;;;;;;5097941;28;20657;-65
2021/07/18 04:03:03;;;;;;;14.93;10.80;;;;;;;;;;5098270;28;20222;-65
2021/07/18 04:05:32;;;;;;;16.37;11.60;;;;;;;;;;5098177;28;20231;-65
2021/07/18 04:08:00;;;;;;;17.97;11.53;;;;;;;;;;5098230;28;20205;-64
2021/07/18 04:10:28;;;;;;;17.23;12.33;;;;;;;;;;5097760;28;20209;-65
2021/07/18 04:12:58;;;;;;;17.20;11.53;;;;;;;;;;5097345;28;20273;-65
2021/07/18 04:15:28;;;;;;;19.73;11.67;;;;;;;;;;5098074;28;20216;-65
2021/07/18 04:17:56;;;;;;;18.73;12.03;;;;;;;;;;5097894;28;20217;-64
2021/07/18 04:20:24;;;;;;;17.17;12.30;;;;;;;;;;5098028;28;20235;-65
2021/07/18 04:22:52;;;;;;;17.10;11.53;;;;;;;;;;5097790;28;20677;-65
2021/07/18 04:25:20;;;;;;;17.07;10.77;;;;;;;;;;5097911;28;20212;-64
2021/07/18 04:27:48;;;;;;;14.33;11.67;;;;;;;;;;5097708;28;20206;-65
2021/07/18 04:30:16;;;;;;;15.73;12.33;;;;;;;;;;5097929;28;20211;-65
2021/07/18 04:32:45;;;;;;;15.50;11.50;;;;;;;;;;5097837;28;20240;-65
2021/07/18 04:35:14;;;;;;;14.90;10.90;;;;;;;;;;5097932;28;20205;-65
2021/07/18 04:37:42;;;;;;;16.73;12.10;;;;;;;;;;5100783;28;20247;-65
2021/07/18 04:40:12;;;;;;;17.17;11.43;;;;;;;;;;5101964;28;20209;-65
2021/07/18 04:42:40;;;;;;;16.47;11.57;;;;;;;;;;5101291;28;20221;-65
2021/07/18 04:45:09;;;;;;;18.03;11.87;;;;;;;;;;5101696;28;20215;-65
2021/07/18 04:47:43;;;;;;;16.23;11.73;;;;;;;;;;5101686;28;20205;-65
2021/07/18 04:50:13;;;;;;;17.73;11.57;;;;;;;;;;5101757;28;20268;-65
2021/07/18 04:52:41;;;;;;;15.87;11.63;;;;;;;;;;5101376;28;20233;-65
2021/07/18 04:55:09;;;;;;;15.60;11.33;;;;;;;;;;5101199;28;20551;-65
2021/07/18 04:57:37;;;;;;;18.80;12.43;;;;;;;;;;5101110;28;20236;-65
2021/07/18 05:00:06;;;;;;;20.07;12.40;;;;;;;;;;5101202;28;20228;-65
2021/07/18 05:02:34;;;;;;;22.10;12.47;;;;;;;;;;5101527;28;20221;-66
2021/07/18 05:05:02;;;;;;;15.27;11.80;;;;;;;;;;5101558;28;20205;-66
2021/07/18 05:07:31;;;;;;;15.77;12.20;;;;;;;;;;5101157;28;20216;-66
2021/07/18 05:09:59;;;;;;;18.07;12.03;;;;;;;;;;5100990;28;20613;-66
2021/07/18 05:12:27;;;;;;;19.13;12.53;;;;;;;;;;5100062;28;20304;-66
2021/07/18 05:14:55;;;;;;;16.97;11.33;;;;;;;;;;5100863;28;20209;-66
2021/07/18 05:17:23;;;;;;;18.47;12.90;;;;;;;;;;5100470;28;20213;-66
2021/07/18 05:19:54;;;;;;;19.57;12.93;;;;;;;;;;5100645;28;20331;-66
2021/07/18 05:22:22;;;;;;;16.87;13.00;;;;;;;;;;5100542;28;20227;-66
2021/07/18 05:24:52;;;;;;;21.27;11.57;;;;;;;;;;5100923;28;20212;-66
2021/07/18 05:27:20;;;;;;;19.47;13.23;;;;;;;;;;5100613;28;20212;-66
2021/07/18 05:29:48;;;;;;;19.63;11.80;;;;;;;;;;5100868;28;20205;-66
2021/07/18 05:32:16;;;;;;;18.43;12.33;;;;;;;;;;5100480;28;20700;-66
2021/07/18 05:34:44;;;;;;;15.97;12.23;;;;;;;;;;5100396;28;20572;-66
2021/07/18 05:37:12;;;;;;;16.97;12.30;;;;;;;;;;5100657;28;20645;-67
2021/07/18 05:39:40;;;;;;;18.20;12.53;;;;;;;;;;5100603;28;20216;-66
2021/07/18 05:42:10;;;;;;;21.57;13.67;;;;;;;;;;5100277;28;20235;-65
2021/07/18 05:44:38;;;;;;;18.20;12.47;;;;;;;;;;5100607;28;20205;-65
2021/07/18 05:47:06;;;;;;;21.70;13.00;;;;;;;;;;5100326;28;20592;-66
2021/07/18 05:49:34;;;;;;;16.07;12.63;;;;;;;;;;5100711;28;20212;-66
2021/07/18 05:55:31;;;;;;;20.00;13.07;;;;;;;;;;5099858;28;20192;-68
2021/07/18 05:58:00;;;;;;;20.57;12.60;;;;;;;;;;5098274;28;20667;-70
2021/07/18 06:00:28;;;;;;;17.57;12.93;;;;;;;;;;5099498;28;20285;-71
2021/07/18 06:02:56;;;;;;;17.93;13.33;;;;;;;;;;5101074;28;20224;-70
2021/07/18 06:05:24;;;;;;;16.90;13.37;;;;;;;;;;5099804;28;20197;-66
2021/07/18 06:07:52;;;;;;;19.10;13.23;;;;;;;;;;5099838;28;20198;-67
2021/07/18 06:10:20;;;;;;;20.43;13.60;;;;;;;;;;5100222;28;20211;-67
2021/07/18 06:12:48;;;;;;;19.33;13.03;;;;;;;;;;5097747;28;20213;-67
2021/07/18 06:15:17;;;;;;;18.50;13.43;;;;;;;;;;5100746;28;20209;-67
2021/07/18 06:17:45;;;;;;;20.07;13.00;;;;;;;;;;5099672;28;20198;-66
2021/07/18 06:20:14;;;;;;;20.17;13.40;;;;;;;;;;5100083;28;20202;-66
2021/07/18 06:22:42;;;;;;;19.53;13.90;;;;;;;;;;5099247;28;20221;-71
2021/07/18 06:25:11;;;;;;;21.03;13.63;;;;;;;;;;5099633;28;20206;-66
2021/07/18 06:27:40;;;;;;;16.57;12.10;;;;;;;;;;5102407;28;20198;-66
2021/07/18 06:30:08;;;;;;;18.50;13.07;;;;;;;;;;5105518;28;20201;-65
2021/07/18 06:32:38;;;;;;;17.63;12.23;;;;;;;;;;5110498;28;20581;-73
2021/07/18 06:35:06;;;;;;;16.43;12.60;;;;;;;;;;5099762;28;20225;-71
2021/07/18 06:37:34;;;;;;;18.57;11.80;;;;;;;;;;5114698;28;20236;-71
2021/07/18 06:40:04;;;;;;;17.63;11.80;;;;;;;;;;5119764;28;20205;-71
2021/07/18 06:42:32;;;;;;;17.40;12.90;;;;;;;;;;5111635;28;20213;-71
2021/07/18 06:45:00;;;;;;;19.47;13.13;;;;;;;;;;5099674;28;20206;-71
2021/07/18 06:47:28;;;;;;;19.90;12.13;;;;;;;;;;5099561;28;20205;-71
2021/07/18 06:49:58;;;;;;;15.57;11.87;;;;;;;;;;5099629;28;20209;-73
2021/07/18 06:52:26;;;;;;;15.83;12.10;;;;;;;;;;5099158;28;20225;-73
2021/07/18 06:54:54;;;;;;;17.23;12.33;;;;;;;;;;5099160;28;20226;-72
2021/07/18 06:57:23;;;;;;;15.63;11.80;;;;;;;;;;5100919;28;20201;-72
2021/07/18 06:59:51;;;;;;;16.93;11.83;;;;;;;;;;5100846;28;20198;-74
2021/07/18 07:02:19;;;;;;;16.23;12.23;;;;;;;;;;5098773;28;20331;-73
2021/07/18 07:08:16;;;;;;;13.13;10.97;;;;;;;;;;5117549;28;20172;-71
2021/07/18 07:10:44;;;;;;;14.53;11.00;;;;;;;;;;5098544;28;20643;-73
2021/07/18 07:13:12;;;;;;;19.37;13.20;;;;;;;;;;5097976;28;20222;-72
2021/07/18 07:15:40;;;;;;;16.77;11.03;;;;;;;;;;5101806;28;20197;-73
2021/07/18 07:18:08;;;;;;;20.23;11.80;;;;;;;;;;5098996;28;20261;-73
2021/07/18 07:20:37;;;;;;;14.83;11.20;;;;;;;;;;5101275;28;20258;-74
2021/07/18 07:23:05;;;;;;;20.30;11.50;;;;;;;;;;5098604;28;20228;-72
2021/07/18 07:25:34;;;;;;;15.57;11.47;;;;;;;;;;5098963;28;20240;-72
2021/07/18 07:28:02;;;;;;;15.73;11.50;;;;;;;;;;5098628;28;20270;-72
2021/07/18 07:30:31;;;;;;;15.73;11.60;;;;;;;;;;5098984;28;20296;-69
2021/07/18 07:32:59;;;;;;;14.70;11.40;;;;;;;;;;5112440;28;20308;-70
2021/07/18 07:35:27;;;;;;;19.43;11.60;;;;;;;;;;5119012;28;20797;-71
2021/07/18 07:37:55;;;;;;;14.07;11.00;;;;;;;;;;5099433;28;20323;-70
2021/07/18 07:40:24;;;;;;;14.73;10.80;;;;;;;;;;5098356;28;20208;-71
2021/07/18 07:42:53;;;;;;;14.90;11.53;;;;;;;;;;5098240;28;20264;-71
2021/07/18 07:45:21;;;;;;;20.73;11.33;;;;;;;;;;5098597;28;20210;-71
2021/07/18 07:47:49;;;;;;;14.67;10.40;;;;;;;;;;5098785;28;20205;-70
2021/07/18 07:50:17;;;;;;;19.37;10.43;;;;;;;;;;5099174;28;20219;-74
2021/07/18 07:52:45;;;;;;;12.13;9.57;;;;;;;;;;5098546;28;20229;-72
2021/07/18 07:55:13;;;;;;;15.57;10.47;;;;;;;;;;5097235;28;20316;-71
2021/07/18 07:57:41;;;;;;;16.20;10.93;;;;;;;;;;5098035;28;20201;-70
2021/07/18 08:00:12;;;;;;;13.27;10.60;;;;;;;;;;5098331;28;20237;-71
2021/07/18 08:02:40;;;;;;;13.50;10.70;;;;;;;;;;5098260;28;20230;-70
2021/07/18 08:05:09;;;;;;;15.00;10.87;;;;;;;;;;5098043;28;20203;-70
2021/07/18 08:07:37;;;;;;;13.87;10.30;;;;;;;;;;5098136;28;20212;-70
2021/07/18 08:10:06;;;;;;;12.17;10.57;;;;;;;;;;5097503;28;20225;-71
2021/07/18 08:12:35;;;;;;;15.27;10.33;;;;;;;;;;5089441;28;20223;-70
2021/07/18 08:15:03;;;;;;;16.20;9.87;;;;;;;;;;5097664;28;20233;-69
2021/07/18 08:17:33;;;;;;;12.50;9.97;;;;;;;;;;5097741;28;20204;-70
2021/07/18 08:20:01;;;;;;;11.13;9.10;;;;;;;;;;5097901;28;20306;-71
2021/07/18 08:22:29;;;;;;;13.43;9.70;;;;;;;;;;5097958;28;20233;-71
2021/07/18 08:24:57;;;;;;;15.00;9.60;;;;;;;;;;5098828;28;20194;-71
2021/07/18 08:27:25;;;;;;;14.23;10.07;;;;;;;;;;5105232;28;20202;-72
2021/07/18 08:29:53;;;;;;;14.10;10.30;;;;;;;;;;5102858;28;20194;-73
2021/07/18 08:32:21;;;;;;;16.00;9.97;;;;;;;;;;5097464;28;20232;-74
2021/07/18 08:34:51;;;;;;;13.73;9.73;;;;;;;;;;5099647;28;20215;-73
2021/07/18 08:37:19;;;;;;;12.40;10.37;;;;;;;;;;5115376;28;20209;-72
2021/07/18 08:39:47;;;;;;;12.60;9.67;;;;;;;;;;5113999;28;20414;-72
2021/07/18 08:42:15;;;;;;;13.67;9.27;;;;;;;;;;5117723;28;20688;-69
2021/07/18 08:44:44;;;;;;;11.70;9.33;;;;;;;;;;5118004;28;20202;-69
2021/07/18 08:47:11;;;;;;;14.73;9.37;;;;;;;;;;5118066;28;20201;-72
2021/07/18 08:49:40;;;;;;;13.87;9.77;;;;;;;;;;5117626;28;20206;-72
2021/07/18 08:52:09;;;;;;;12.87;9.40;;;;;;;;;;5111472;28;20768;-71
2021/07/18 08:54:38;;;;;;;11.33;9.00;;;;;;;;;;5106797;28;20218;-67
2021/07/18 08:57:06;;;;;;;15.03;9.70;;;;;;;;;;5107635;28;20215;-70
2021/07/18 08:59:35;;;;;;;12.27;8.97;;;;;;;;;;5105158;28;20210;-66
2021/07/18 09:02:05;;;;;;;14.60;9.87;;;;;;;;;;5103141;28;20234;-70
2021/07/18 09:04:34;;;;;;;12.80;9.87;;;;;;;;;;5104128;28;20196;-64
2021/07/18 09:07:04;;;;;;;11.87;9.37;;;;;;;;;;5105895;28;20230;-67
2021/07/18 09:09:34;;;;;;;12.27;9.33;;;;;;;;;;5084206;28;20205;-66
2021/07/18 09:12:03;;;;;;;11.53;9.53;;;;;;;;;;5098840;28;20217;-72
2021/07/18 09:14:33;;;;;;;11.00;8.70;;;;;;;;;;5105883;28;20214;-75
2021/07/18 09:17:01;;;;;;;11.07;8.30;;;;;;;;;;5112466;28;20199;-75
2021/07/18 09:19:30;;;;;;;10.90;9.37;;;;;;;;;;5089409;28;20262;-74
2021/07/18 09:22:09;;;;;;;26.83;10.80;;;;;;;;;;5093147;28;20310;-75
2021/07/18 09:24:40;;;;;;;13.07;8.97;;;;;;;;;;5100408;28;20277;-74
2021/07/18 09:27:10;;;;;;;10.63;8.20;;;;;;;;;;5100577;28;20245;-75
2021/07/18 09:29:39;;;;;;;9.87;8.60;;;;;;;;;;5089259;28;20196;-74
2021/07/18 09:32:08;;;;;;;10.83;8.87;;;;;;;;;;5091527;28;20307;-73
2021/07/18 09:34:37;;;;;;;13.17;8.40;;;;;;;;;;5087654;28;20288;-73
2021/07/18 09:37:11;;;;;;;12.23;9.50;;;;;;;;;;5087313;28;20203;-72
2021/07/18 09:39:41;;;;;;;11.67;9.13;;;;;;;;;;5092408;28;20211;-77
2021/07/18 09:42:10;;;;;;;13.17;8.60;;;;;;;;;;5089279;28;20629;-77
2021/07/18 09:44:42;;;;;;;12.80;8.90;;;;;;;;;;5098922;28;20199;-76
2021/07/18 09:47:11;;;;;;;8.90;8.00;;;;;;;;;;5103585;28;20207;-76
2021/07/18 09:49:39;;;;;;;12.23;8.40;;;;;;;;;;5105703;28;20197;-82
2021/07/18 09:52:20;;;;;;;9.93;8.73;;;;;;;;;;5099988;28;20287;-71
2021/07/18 09:54:50;;;;;;;11.73;8.53;;;;;;;;;;5098351;28;20350;-70
2021/07/18 09:57:31;;;;;;;11.70;8.73;;;;;;;;;;5099992;28;20325;-70
2021/07/18 09:59:59;;;;;;;9.63;7.97;;;;;;;;;;5098555;28;20193;-71
2021/07/18 10:02:27;;;;;;;12.37;7.93;;;;;;;;;;5095592;28;20234;-70
2021/07/18 10:04:56;;;;;;;13.37;9.13;;;;;;;;;;5093357;28;20208;-70
2021/07/18 10:07:30;;;;;;;10.30;8.37;;;;;;;;;;5098793;28;20221;-71
2021/07/18 10:09:59;;;;;;;11.33;8.90;;;;;;;;;;5099187;28;20197;-71
2021/07/18 10:12:27;;;;;;;10.40;7.87;;;;;;;;;;5089493;28;20227;-71
2021/07/18 10:14:55;;;;;;;10.60;8.40;;;;;;;;;;5092984;28;20279;-71
2021/07/18 10:17:24;;;;;;;10.20;8.60;;;;;;;;;;5098336;28;20197;-71
2021/07/18 10:19:52;;;;;;;10.43;9.13;;;;;;;;;;5093791;28;20201;-71
2021/07/18 10:22:20;;;;;;;14.30;9.47;;;;;;;;;;5090883;28;20220;-71
2021/07/18 10:24:50;;;;;;;14.23;8.83;;;;;;;;;;5091904;28;20202;-71
2021/07/18 10:27:21;;;;;;;11.97;8.63;;;;;;;;;;5096775;28;20197;-71
2021/07/18 10:29:52;;;;;;;13.57;8.17;;;;;;;;;;5098487;28;20250;-71
2021/07/18 10:32:22;;;;;;;10.47;8.00;;;;;;;;;;5090627;28;20308;-71
2021/07/18 10:34:52;;;;;;;9.50;8.50;;;;;;;;;;5089781;28;20225;-71
2021/07/18 10:37:20;;;;;;;9.97;8.17;;;;;;;;;;5086999;28;20225;-71
2021/07/18 10:39:48;;;;;;;11.60;8.07;;;;;;;;;;5088056;28;22012;-72
2021/07/18 10:42:17;;;;;;;11.47;7.60;;;;;;;;;;5094733;28;20316;-70
2021/07/18 10:44:50;;;;;;;9.50;7.70;;;;;;;;;;5099358;28;20197;-70
2021/07/18 10:47:18;;;;;;;9.20;7.83;;;;;;;;;;5097866;28;20614;-72
2021/07/18 10:49:51;;;;;;;9.57;7.77;;;;;;;;;;5095588;28;20195;-72
2021/07/18 10:52:19;;;;;;;9.80;7.13;;;;;;;;;;5095777;28;20584;-70
2021/07/18 10:54:47;;;;;;;12.57;8.03;;;;;;;;;;5098113;28;20200;-73
2021/07/18 10:57:26;;;;;;;12.77;7.83;;;;;;;;;;5099235;28;20713;-71
2021/07/18 10:59:55;;;;;;;16.63;8.53;;;;;;;;;;5106918;28;20203;-71
2021/07/18 11:02:32;;;;;;;9.57;7.90;;;;;;;;;;5105572;28;20718;-72
2021/07/18 11:05:02;;;;;;;10.97;7.00;;;;;;;;;;5088688;28;20207;-72
2021/07/18 11:07:31;;;;;;;10.77;7.53;;;;;;;;;;5098612;28;20314;-72
2021/07/18 11:10:00;;;;;;;10.80;7.90;;;;;;;;;;5097572;28;20207;-72
2021/07/18 11:12:30;;;;;;;7.90;6.83;;;;;;;;;;5096006;28;20275;-72
2021/07/18 11:15:17;;;;;;;8.73;6.77;;;;;;;;;;5100339;28;20201;-72
2021/07/18 11:17:58;;;;;;;14.03;7.33;;;;;;;;;;5104727;28;20224;-72
2021/07/18 11:20:41;;;;;;;10.03;7.57;;;;;;;;;;5098438;28;20197;-72
2021/07/18 11:23:09;;;;;;;9.57;7.10;;;;;;;;;;5096478;28;20239;-72
2021/07/18 11:25:45;;;;;;;8.17;6.50;;;;;;;;;;5085224;28;20684;-72
2021/07/18 11:28:32;;;;;;;7.80;6.43;;;;;;;;;;5097128;28;20209;-72
2021/07/18 11:31:15;;;;;;;12.70;7.73;;;;;;;;;;5085663;28;20266;-72
2021/07/18 11:33:52;;;;;;;7.87;7.00;;;;;;;;;;5095532;28;20288;-72
2021/07/18 11:36:21;;;;;;;10.77;6.30;;;;;;;;;;5095122;28;20244;-72
2021/07/18 11:38:50;;;;;;;11.77;7.20;;;;;;;;;;5097977;28;20308;-72
2021/07/18 11:41:18;;;;;;;11.67;6.83;;;;;;;;;;5087642;28;20624;-73
2021/07/18 11:43:47;;;;;;;9.77;6.40;;;;;;;;;;5082989;28;20646;-72
2021/07/18 11:46:15;;;;;;;8.60;5.53;;;;;;;;;;5091529;28;20293;-72
2021/07/18 11:48:43;;;;;;;7.77;6.03;;;;;;;;;;5098283;28;20254;-71
2021/07/18 11:51:13;;;;;;;12.43;5.40;;;;;;;;;;5107210;28;20205;-71
2021/07/18 11:53:45;;;;;;;5.53;5.00;;;;;;;;;;5098857;28;20209;-70
2021/07/18 11:56:20;;;;;;;11.63;6.20;;;;;;;;;;5097338;28;20240;-70
2021/07/18 11:58:48;;;;;;;8.10;6.00;;;;;;;;;;5099364;28;20200;-70
2021/07/18 12:01:20;;;;;;;9.17;6.10;;;;;;;;;;5088610;28;20326;-70
2021/07/18 12:03:48;;;;;;;6.27;5.03;;;;;;;;;;5098356;28;20228;-70
2021/07/18 12:06:19;;;;;;;9.03;5.40;;;;;;;;;;5096995;28;20236;-70
2021/07/18 12:08:47;;;;;;;8.17;5.57;;;;;;;;;;5083644;28;20299;-70
2021/07/18 12:11:22;;;;;;;5.03;4.60;;;;;;;;;;5078595;28;20199;-70
2021/07/18 12:13:52;;;;;;;7.03;5.13;;;;;;;;;;5097393;28;20213;-70
2021/07/18 12:16:21;;;;;;;8.57;5.30;;;;;;;;;;5083322;28;20276;-70
2021/07/18 12:18:49;;;;;;;9.03;4.47;;;;;;;;;;5097667;28;20292;-70
2021/07/18 12:21:20;;;;;;;8.70;4.90;;;;;;;;;;5094292;28;20229;-70
2021/07/18 12:24:02;;;;;;;9.73;5.40;;;;;;;;;;5097493;28;20287;-70
2021/07/18 12:26:30;;;;;;;11.97;4.97;;;;;;;;;;5083592;28;20202;-70
2021/07/18 12:29:02;;;;;;;5.80;5.17;;;;;;;;;;5091957;28;20205;-70
2021/07/18 12:31:30;;;;;;;6.87;4.63;;;;;;;;;;5095995;28;20226;-70
2021/07/18 12:33:58;;;;;;;9.87;4.97;;;;;;;;;;5096836;28;20678;-70
2021/07/18 12:36:28;;;;;;;7.63;5.33;;;;;;;;;;5095471;28;20211;-70
2021/07/18 12:38:56;;;;;;;7.83;5.37;;;;;;;;;;5096456;28;20247;-70
2021/07/18 12:41:24;;;;;;;9.83;5.50;;;;;;;;;;5085342;28;20217;-70
2021/07/18 12:43:52;;;;;;;9.10;5.00;;;;;;;;;;5095752;28;20203;-70
2021/07/18 12:46:21;;;;;;;6.03;5.03;;;;;;;;;;5076840;28;20266;-70
2021/07/18 12:49:05;;;;;;;6.37;4.93;;;;;;;;;;5091271;28;20202;-70
2021/07/18 12:51:35;;;;;;;7.33;4.67;;;;;;;;;;5079273;28;20229;-70
2021/07/18 12:54:03;;;;;;;5.20;4.70;;;;;;;;;;5095102;28;20217;-70
2021/07/18 12:56:31;;;;;;;7.83;4.67;;;;;;;;;;5095989;28;20206;-70
2021/07/18 12:58:59;;;;;;;7.30;4.90;;;;;;;;;;5100810;28;20303;-70
2021/07/18 13:01:27;;;;;;;5.57;4.07;;;;;;;;;;5085972;28;20277;-70
2021/07/18 13:04:03;;;;;;;8.43;5.17;;;;;;;;;;5100788;28;20208;-70
2021/07/18 13:06:40;;;;;;;4.77;4.30;;;;;;;;;;5087212;28;20317;-70
2021/07/18 13:09:21;;;;;;;8.77;4.30;;;;;;;;;;5100675;28;20233;-70
2021/07/18 13:11:52;;;;;;;6.47;4.53;;;;;;;;;;5096250;28;20599;-70
2021/07/18 13:14:28;;;;;;;6.87;4.80;;;;;;;;;;5099632;28;20203;-70
2021/07/18 13:17:06;;;;;;;7.97;4.73;;;;;;;;;;5097238;28;20224;-70
2021/07/18 13:19:34;;;;;;;6.83;4.80;;;;;;;;;;5087182;28;20223;-71
2021/07/18 13:22:05;;;;;;;7.43;4.13;;;;;;;;;;5083322;28;20236;-71
2021/07/18 13:24:34;;;;;;;6.23;4.43;;;;;;;;;;5097445;28;20211;-71
2021/07/18 13:27:11;;;;;;;11.53;5.00;;;;;;;;;;5100277;28;20211;-70
2021/07/18 13:29:40;;;;;;;5.97;4.20;;;;;;;;;;5099386;28;20203;-71
2021/07/18 13:32:09;;;;;;;7.07;3.90;;;;;;;;;;5100693;28;20232;-70
2021/07/18 13:34:39;;;;;;;7.97;4.23;;;;;;;;;;5095768;28;20201;-70
2021/07/18 13:37:08;;;;;;;7.33;4.67;;;;;;;;;;5091463;28;20227;-70
2021/07/18 13:39:36;;;;;;;4.80;4.03;;;;;;;;;;5098219;28;20207;-70
2021/07/18 13:42:06;;;;;;;6.30;4.40;;;;;;;;;;5098719;28;20291;-71
2021/07/18 13:44:34;;;;;;;6.13;4.27;;;;;;;;;;5095709;28;20208;-70
2021/07/18 13:47:02;;;;;;;6.57;4.57;;;;;;;;;;5082008;28;20204;-71
2021/07/18 13:49:31;;;;;;;7.67;4.13;;;;;;;;;;5097581;28;20232;-71
2021/07/18 13:52:00;;;;;;;7.23;4.23;;;;;;;;;;5098931;28;20228;-70
2021/07/18 13:54:30;;;;;;;6.53;4.17;;;;;;;;;;5089354;28;20214;-70
2021/07/18 13:56:58;;;;;;;8.17;4.60;;;;;;;;;;5097328;28;20790;-71
2021/07/18 13:59:26;;;;;;;6.07;4.07;;;;;;;;;;5096179;28;20340;-71
2021/07/18 14:01:54;;;;;;;6.50;4.37;;;;;;;;;;5089439;28;20596;-70
2021/07/18 14:04:22;;;;;;;4.90;3.90;;;;;;;;;;5098589;28;20307;-71
2021/07/18 14:06:50;;;;;;;8.90;4.17;;;;;;;;;;5095730;28;20201;-70
2021/07/18 14:09:18;;;;;;;6.60;4.63;;;;;;;;;;5098849;28;20208;-71
2021/07/18 14:11:48;;;;;;;8.77;4.20;;;;;;;;;;5086430;28;20239;-71
2021/07/18 14:14:16;;;;;;;4.67;4.27;;;;;;;;;;5098371;28;20397;-71
2021/07/18 14:16:44;;;;;;;6.70;4.10;;;;;;;;;;5099832;28;20212;-71
2021/07/18 14:19:12;;;;;;;5.80;3.87;;;;;;;;;;5098262;28;20262;-71
2021/07/18 14:21:40;;;;;;;6.67;4.03;;;;;;;;;;5094643;28;20227;-71
2021/07/18 14:24:08;;;;;;;7.40;4.17;;;;;;;;;;5099636;28;20696;-71
2021/07/18 14:26:36;;;;;;;9.20;3.63;;;;;;;;;;5098853;28;20209;-71
2021/07/18 14:29:06;;;;;;;5.27;3.60;;;;;;;;;;5099734;28;20211;-72
2021/07/18 14:31:35;;;;;;;3.67;3.37;;;;;;;;;;5099397;28;20255;-71
2021/07/18 14:34:04;;;;;;;5.10;3.53;;;;;;;;;;5100173;28;20201;-71
2021/07/18 14:36:32;;;;;;;8.27;3.43;;;;;;;;;;5097173;28;20578;-70
2021/07/18 14:39:00;;;;;;;8.70;4.10;;;;;;;;;;5099076;28;20247;-71
2021/07/18 14:41:28;;;;;;;8.30;3.80;;;;;;;;;;5086343;28;20233;-70
2021/07/18 14:43:56;;;;;;;6.95;3.75;;;;;;;;;;5080150;28;20194;-71
2021/07/18 14:46:25;;;;;;;5.32;3.33;;;;;;;;;;5093522;28;20211;-70